KBFF

Western Nebraska Regional / William B Heilig Field Airport

Scottsbluff, Nebraska, USA
METAR KBFF 250453Z AUTO 03006KT 10SM CLR 16/11 A3001 RMK AO2 SLP122 T01560111
Observed Flight Rules
May-25 @ 04:53 UTC (29 minutes ago) Visual Flight Rules
Wind Visibility Clouds
30° at 6 knots 10 miles
  • Clear skies
Temperatures Readings
Current 16°C / 61°F
Dewpoint 11°C / 52°F
Humidity 72%
Altimeter 30.01" Hg
Pressure 1012.2 hPa
Elevation 1203
METAR KBFF 250453Z AUTO 03006KT 10SM CLR 16/11 A3001 RMK AO2 SLP122 T01560111
Observed Flight Rules
May-25 @ 04:53 UTC
(29 minutes ago)
VFR
Wind Visibility
30° at 6 knots 10 miles
Clouds
  • Clear skies
Temperature Dewpoint
16°C / 61°F 11°C / 52°F
Humidity Altimeter Pressure
72% 30.01" Hg 1012.2 hPa